sensor_id;sensor_type;location;lat;lon;timestamp;P1;durP1;ratioP1;P2;durP2;ratioP2
25509;SDS011;13413;52.336;21.200;2023-04-25T00:02:14;22.10;;;18.60;;
25509;SDS011;13413;52.336;21.200;2023-04-25T00:05:09;20.10;;;18.00;;
25509;SDS011;13413;52.336;21.200;2023-04-25T00:08:04;22.80;;;17.20;;
25509;SDS011;13413;52.336;21.200;2023-04-25T00:10:59;19.60;;;15.90;;
25509;SDS011;13413;52.336;21.200;2023-04-25T00:13:53;19.60;;;16.90;;
25509;SDS011;13413;52.336;21.200;2023-04-25T00:16:46;19.10;;;17.10;;
25509;SDS011;13413;52.336;21.200;2023-04-25T00:19:41;20.90;;;17.40;;
25509;SDS011;13413;52.336;21.200;2023-04-25T00:22:35;20.30;;;18.00;;
25509;SDS011;13413;52.336;21.200;2023-04-25T00:28:22;27.70;;;19.10;;
25509;SDS011;13413;52.336;21.200;2023-04-25T00:31:15;20.00;;;17.50;;
25509;SDS011;13413;52.336;21.200;2023-04-25T00:34:09;20.20;;;17.30;;
25509;SDS011;13413;52.336;21.200;2023-04-25T00:37:03;20.50;;;18.00;;
25509;SDS011;13413;52.336;21.200;2023-04-25T00:39:58;23.00;;;18.40;;
25509;SDS011;13413;52.336;21.200;2023-04-25T00:42:53;21.10;;;17.90;;
25509;SDS011;13413;52.336;21.200;2023-04-25T00:45:47;14.80;;;13.40;;
25509;SDS011;13413;52.336;21.200;2023-04-25T00:54:16;24.60;;;19.30;;
25509;SDS011;13413;52.336;21.200;2023-04-25T00:57:10;22.10;;;19.60;;
25509;SDS011;13413;52.336;21.200;2023-04-25T01:00:06;21.50;;;18.20;;
25509;SDS011;13413;52.336;21.200;2023-04-25T01:03:02;23.10;;;18.30;;
25509;SDS011;13413;52.336;21.200;2023-04-25T01:05:57;22.60;;;20.00;;
25509;SDS011;13413;52.336;21.200;2023-04-25T01:08:51;29.80;;;20.70;;
25509;SDS011;13413;52.336;21.200;2023-04-25T01:11:45;22.40;;;18.50;;
25509;SDS011;13413;52.336;21.200;2023-04-25T01:14:42;23.90;;;19.10;;
25509;SDS011;13413;52.336;21.200;2023-04-25T01:17:37;25.50;;;18.70;;
25509;SDS011;13413;52.336;21.200;2023-04-25T01:23:26;20.40;;;17.10;;
25509;SDS011;13413;52.336;21.200;2023-04-25T01:26:20;22.20;;;19.10;;
25509;SDS011;13413;52.336;21.200;2023-04-25T01:29:15;23.40;;;18.80;;
25509;SDS011;13413;52.336;21.200;2023-04-25T01:32:10;24.50;;;19.30;;
25509;SDS011;13413;52.336;21.200;2023-04-25T01:38:00;25.30;;;18.40;;
25509;SDS011;13413;52.336;21.200;2023-04-25T01:43:47;20.70;;;17.60;;
25509;SDS011;13413;52.336;21.200;2023-04-25T01:46:41;21.20;;;18.90;;
25509;SDS011;13413;52.336;21.200;2023-04-25T01:49:35;21.60;;;19.20;;
25509;SDS011;13413;52.336;21.200;2023-04-25T01:52:29;27.70;;;18.90;;
25509;SDS011;13413;52.336;21.200;2023-04-25T01:55:24;21.80;;;18.10;;
25509;SDS011;13413;52.336;21.200;2023-04-25T01:58:18;23.50;;;19.80;;
25509;SDS011;13413;52.336;21.200;2023-04-25T02:01:12;23.90;;;19.40;;
25509;SDS011;13413;52.336;21.200;2023-04-25T02:04:06;25.40;;;19.30;;
25509;SDS011;13413;52.336;21.200;2023-04-25T02:07:00;22.90;;;20.50;;
25509;SDS011;13413;52.336;21.200;2023-04-25T02:09:55;26.50;;;21.70;;
25509;SDS011;13413;52.336;21.200;2023-04-25T02:12:49;26.60;;;22.40;;
25509;SDS011;13413;52.336;21.200;2023-04-25T02:15:43;28.90;;;24.10;;
25509;SDS011;13413;52.336;21.200;2023-04-25T02:18:37;27.60;;;23.70;;
25509;SDS011;13413;52.336;21.200;2023-04-25T02:21:31;30.00;;;23.00;;
25509;SDS011;13413;52.336;21.200;2023-04-25T02:24:26;27.10;;;24.10;;
25509;SDS011;13413;52.336;21.200;2023-04-25T02:27:20;42.50;;;25.30;;
25509;SDS011;13413;52.336;21.200;2023-04-25T02:30:14;30.80;;;24.50;;
25509;SDS011;13413;52.336;21.200;2023-04-25T02:33:08;27.10;;;23.80;;
25509;SDS011;13413;52.336;21.200;2023-04-25T02:38:57;28.50;;;24.90;;
25509;SDS011;13413;52.336;21.200;2023-04-25T02:41:51;25.60;;;22.60;;
25509;SDS011;13413;52.336;21.200;2023-04-25T02:47:38;24.40;;;21.60;;
25509;SDS011;13413;52.336;21.200;2023-04-25T02:50:32;27.50;;;23.50;;
25509;SDS011;13413;52.336;21.200;2023-04-25T02:53:26;27.30;;;23.30;;
25509;SDS011;13413;52.336;21.200;2023-04-25T02:56:20;27.90;;;21.80;;
25509;SDS011;13413;52.336;21.200;2023-04-25T02:59:14;27.30;;;23.10;;
25509;SDS011;13413;52.336;21.200;2023-04-25T03:02:09;27.90;;;19.20;;
25509;SDS011;13413;52.336;21.200;2023-04-25T03:05:04;22.20;;;19.80;;
25509;SDS011;13413;52.336;21.200;2023-04-25T03:15:46;24.40;;;20.00;;
25509;SDS011;13413;52.336;21.200;2023-04-25T03:18:40;23.80;;;20.50;;
25509;SDS011;13413;52.336;21.200;2023-04-25T03:21:34;26.30;;;20.10;;
25509;SDS011;13413;52.336;21.200;2023-04-25T03:24:29;23.70;;;21.10;;
25509;SDS011;13413;52.336;21.200;2023-04-25T03:27:23;21.70;;;18.40;;
25509;SDS011;13413;52.336;21.200;2023-04-25T03:30:18;22.60;;;19.30;;
25509;SDS011;13413;52.336;21.200;2023-04-25T03:36:06;26.80;;;19.00;;
25509;SDS011;13413;52.336;21.200;2023-04-25T03:39:01;25.10;;;20.00;;
25509;SDS011;13413;52.336;21.200;2023-04-25T03:41:55;22.80;;;20.40;;
25509;SDS011;13413;52.336;21.200;2023-04-25T03:44:49;25.00;;;19.20;;
25509;SDS011;13413;52.336;21.200;2023-04-25T03:47:44;22.30;;;19.60;;
25509;SDS011;13413;52.336;21.200;2023-04-25T03:50:38;22.10;;;17.50;;
25509;SDS011;13413;52.336;21.200;2023-04-25T03:53:32;23.80;;;19.30;;
25509;SDS011;13413;52.336;21.200;2023-04-25T03:56:26;25.10;;;19.10;;
25509;SDS011;13413;52.336;21.200;2023-04-25T03:59:20;23.50;;;18.90;;
25509;SDS011;13413;52.336;21.200;2023-04-25T04:02:14;23.10;;;18.40;;
25509;SDS011;13413;52.336;21.200;2023-04-25T04:05:11;23.00;;;18.90;;
25509;SDS011;13413;52.336;21.200;2023-04-25T04:08:05;22.90;;;17.70;;
25509;SDS011;13413;52.336;21.200;2023-04-25T04:10:59;19.10;;;16.70;;
25509;SDS011;13413;52.336;21.200;2023-04-25T04:13:54;20.10;;;16.30;;
25509;SDS011;13413;52.336;21.200;2023-04-25T04:16:48;20.20;;;16.40;;
25509;SDS011;13413;52.336;21.200;2023-04-25T04:19:42;23.70;;;17.10;;
25509;SDS011;13413;52.336;21.200;2023-04-25T04:22:36;30.50;;;17.30;;
25509;SDS011;13413;52.336;21.200;2023-04-25T04:25:30;17.50;;;15.20;;
25509;SDS011;13413;52.336;21.200;2023-04-25T04:28:24;19.60;;;15.50;;
25509;SDS011;13413;52.336;21.200;2023-04-25T04:31:18;16.20;;;14.50;;
25509;SDS011;13413;52.336;21.200;2023-04-25T04:34:12;18.80;;;16.00;;
25509;SDS011;13413;52.336;21.200;2023-04-25T04:37:06;21.80;;;16.50;;
25509;SDS011;13413;52.336;21.200;2023-04-25T04:40:00;19.10;;;15.90;;
25509;SDS011;13413;52.336;21.200;2023-04-25T04:42:54;20.80;;;14.60;;
25509;SDS011;13413;52.336;21.200;2023-04-25T04:45:48;18.50;;;16.30;;
25509;SDS011;13413;52.336;21.200;2023-04-25T04:48:42;22.20;;;16.00;;
25509;SDS011;13413;52.336;21.200;2023-04-25T04:51:36;18.50;;;15.60;;
25509;SDS011;13413;52.336;21.200;2023-04-25T04:54:30;20.10;;;15.40;;
25509;SDS011;13413;52.336;21.200;2023-04-25T04:57:24;18.10;;;15.00;;
25509;SDS011;13413;52.336;21.200;2023-04-25T05:00:21;21.50;;;14.60;;
25509;SDS011;13413;52.336;21.200;2023-04-25T05:03:16;20.00;;;16.20;;
25509;SDS011;13413;52.336;21.200;2023-04-25T05:06:10;18.10;;;15.40;;
25509;SDS011;13413;52.336;21.200;2023-04-25T05:09:04;22.20;;;16.10;;
25509;SDS011;13413;52.336;21.200;2023-04-25T05:11:58;24.60;;;15.30;;
25509;SDS011;13413;52.336;21.200;2023-04-25T05:14:52;15.80;;;14.20;;
25509;SDS011;13413;52.336;21.200;2023-04-25T05:17:46;17.00;;;15.10;;
25509;SDS011;13413;52.336;21.200;2023-04-25T05:20:40;20.50;;;15.40;;
25509;SDS011;13413;52.336;21.200;2023-04-25T05:23:34;22.80;;;15.20;;
25509;SDS011;13413;52.336;21.200;2023-04-25T05:34:53;18.60;;;16.50;;
25509;SDS011;13413;52.336;21.200;2023-04-25T05:37:48;19.90;;;16.30;;
25509;SDS011;13413;52.336;21.200;2023-04-25T05:40:42;21.40;;;16.50;;
25509;SDS011;13413;52.336;21.200;2023-04-25T05:43:36;19.10;;;16.10;;
25509;SDS011;13413;52.336;21.200;2023-04-25T05:46:31;21.70;;;17.10;;
25509;SDS011;13413;52.336;21.200;2023-04-25T05:49:25;20.40;;;16.50;;
25509;SDS011;13413;52.336;21.200;2023-04-25T05:52:19;19.10;;;16.00;;
25509;SDS011;13413;52.336;21.200;2023-04-25T05:55:12;18.30;;;16.00;;
25509;SDS011;13413;52.336;21.200;2023-04-25T05:58:07;21.60;;;15.50;;
25509;SDS011;13413;52.336;21.200;2023-04-25T06:01:01;18.70;;;16.50;;
25509;SDS011;13413;52.336;21.200;2023-04-25T06:03:56;17.80;;;15.90;;
25509;SDS011;13413;52.336;21.200;2023-04-25T06:06:49;31.90;;;16.20;;
25509;SDS011;13413;52.336;21.200;2023-04-25T06:09:43;30.40;;;19.60;;
25509;SDS011;13413;52.336;21.200;2023-04-25T06:12:38;27.00;;;17.00;;
25509;SDS011;13413;52.336;21.200;2023-04-25T06:15:35;59.30;;;28.60;;
25509;SDS011;13413;52.336;21.200;2023-04-25T06:18:29;28.40;;;21.50;;
25509;SDS011;13413;52.336;21.200;2023-04-25T06:21:23;19.10;;;17.00;;
25509;SDS011;13413;52.336;21.200;2023-04-25T06:24:16;19.70;;;14.80;;
25509;SDS011;13413;52.336;21.200;2023-04-25T06:27:11;16.60;;;14.90;;
25509;SDS011;13413;52.336;21.200;2023-04-25T06:30:06;16.40;;;14.00;;
25509;SDS011;13413;52.336;21.200;2023-04-25T06:33:01;15.80;;;13.70;;
25509;SDS011;13413;52.336;21.200;2023-04-25T06:35:54;14.70;;;12.40;;
25509;SDS011;13413;52.336;21.200;2023-04-25T06:38:49;26.60;;;22.40;;
25509;SDS011;13413;52.336;21.200;2023-04-25T06:41:43;17.20;;;15.40;;
25509;SDS011;13413;52.336;21.200;2023-04-25T06:44:37;14.70;;;13.20;;
25509;SDS011;13413;52.336;21.200;2023-04-25T06:47:31;10.90;;;9.20;;
25509;SDS011;13413;52.336;21.200;2023-04-25T06:50:24;11.20;;;9.50;;
25509;SDS011;13413;52.336;21.200;2023-04-25T06:53:19;12.40;;;8.70;;
25509;SDS011;13413;52.336;21.200;2023-04-25T06:56:13;11.60;;;9.90;;
25509;SDS011;13413;52.336;21.200;2023-04-25T06:59:08;10.70;;;9.10;;
25509;SDS011;13413;52.336;21.200;2023-04-25T07:02:01;11.20;;;8.90;;
25509;SDS011;13413;52.336;21.200;2023-04-25T07:04:56;11.60;;;10.40;;
25509;SDS011;13413;52.336;21.200;2023-04-25T07:07:53;13.20;;;10.60;;
25509;SDS011;13413;52.336;21.200;2023-04-25T07:10:47;12.90;;;11.60;;
25509;SDS011;13413;52.336;21.200;2023-04-25T07:13:43;15.70;;;13.80;;
25509;SDS011;13413;52.336;21.200;2023-04-25T07:16:37;14.90;;;13.50;;
25509;SDS011;13413;52.336;21.200;2023-04-25T07:19:31;15.50;;;12.70;;
25509;SDS011;13413;52.336;21.200;2023-04-25T07:22:24;15.70;;;14.10;;
25509;SDS011;13413;52.336;21.200;2023-04-25T07:25:19;17.10;;;15.50;;
25509;SDS011;13413;52.336;21.200;2023-04-25T07:28:13;17.10;;;14.40;;
25509;SDS011;13413;52.336;21.200;2023-04-25T07:31:07;15.90;;;14.40;;
25509;SDS011;13413;52.336;21.200;2023-04-25T07:34:01;18.80;;;15.30;;
25509;SDS011;13413;52.336;21.200;2023-04-25T07:39:49;17.10;;;15.50;;
25509;SDS011;13413;52.336;21.200;2023-04-25T07:42:44;15.80;;;14.30;;
25509;SDS011;13413;52.336;21.200;2023-04-25T07:57:20;15.90;;;14.20;;
25509;SDS011;13413;52.336;21.200;2023-04-25T08:00:15;17.90;;;16.00;;
25509;SDS011;13413;52.336;21.200;2023-04-25T08:03:10;15.90;;;14.30;;
25509;SDS011;13413;52.336;21.200;2023-04-25T08:06:04;15.90;;;14.40;;
25509;SDS011;13413;52.336;21.200;2023-04-25T08:08:58;14.40;;;13.00;;
25509;SDS011;13413;52.336;21.200;2023-04-25T08:11:52;15.10;;;13.60;;
25509;SDS011;13413;52.336;21.200;2023-04-25T08:14:47;15.90;;;13.80;;
25509;SDS011;13413;52.336;21.200;2023-04-25T08:17:41;13.50;;;12.30;;
25509;SDS011;13413;52.336;21.200;2023-04-25T08:20:35;15.80;;;13.70;;
25509;SDS011;13413;52.336;21.200;2023-04-25T08:23:29;15.00;;;13.50;;
25509;SDS011;13413;52.336;21.200;2023-04-25T08:26:24;13.30;;;12.00;;
25509;SDS011;13413;52.336;21.200;2023-04-25T08:29:18;13.00;;;11.80;;
25509;SDS011;13413;52.336;21.200;2023-04-25T08:32:12;13.10;;;11.40;;
25509;SDS011;13413;52.336;21.200;2023-04-25T08:35:08;12.90;;;11.70;;
25509;SDS011;13413;52.336;21.200;2023-04-25T08:38:01;12.30;;;11.10;;
25509;SDS011;13413;52.336;21.200;2023-04-25T08:40:56;15.90;;;14.40;;
25509;SDS011;13413;52.336;21.200;2023-04-25T08:43:51;12.60;;;11.30;;
25509;SDS011;13413;52.336;21.200;2023-04-25T08:46:48;11.70;;;10.60;;
25509;SDS011;13413;52.336;21.200;2023-04-25T08:49:44;12.10;;;10.70;;
25509;SDS011;13413;52.336;21.200;2023-04-25T08:52:44;12.40;;;11.10;;
25509;SDS011;13413;52.336;21.200;2023-04-25T08:55:38;12.80;;;11.30;;
25509;SDS011;13413;52.336;21.200;2023-04-25T08:58:34;13.40;;;11.70;;
25509;SDS011;13413;52.336;21.200;2023-04-25T09:04:22;18.30;;;15.00;;
25509;SDS011;13413;52.336;21.200;2023-04-25T09:07:17;17.70;;;13.50;;
25509;SDS011;13413;52.336;21.200;2023-04-25T09:13:23;14.80;;;13.20;;
25509;SDS011;13413;52.336;21.200;2023-04-25T09:16:18;17.40;;;15.50;;
25509;SDS011;13413;52.336;21.200;2023-04-25T09:19:22;22.30;;;19.80;;
25509;SDS011;13413;52.336;21.200;2023-04-25T09:22:17;15.70;;;14.20;;
25509;SDS011;13413;52.336;21.200;2023-04-25T09:25:12;14.50;;;13.10;;
25509;SDS011;13413;52.336;21.200;2023-04-25T09:28:07;14.00;;;12.60;;
25509;SDS011;13413;52.336;21.200;2023-04-25T09:31:03;13.60;;;12.40;;
25509;SDS011;13413;52.336;21.200;2023-04-25T09:33:59;14.50;;;11.70;;
25509;SDS011;13413;52.336;21.200;2023-04-25T09:36:55;12.80;;;11.60;;
25509;SDS011;13413;52.336;21.200;2023-04-25T09:39:56;12.90;;;11.00;;
25509;SDS011;13413;52.336;21.200;2023-04-25T09:42:51;12.20;;;11.10;;
25509;SDS011;13413;52.336;21.200;2023-04-25T09:45:44;13.60;;;12.20;;
25509;SDS011;13413;52.336;21.200;2023-04-25T09:48:38;13.10;;;11.90;;
25509;SDS011;13413;52.336;21.200;2023-04-25T09:51:39;12.60;;;11.50;;
25509;SDS011;13413;52.336;21.200;2023-04-25T09:54:34;13.40;;;12.10;;
25509;SDS011;13413;52.336;21.200;2023-04-25T09:57:28;13.10;;;11.70;;
25509;SDS011;13413;52.336;21.200;2023-04-25T10:00:22;14.20;;;11.20;;
25509;SDS011;13413;52.336;21.200;2023-04-25T10:03:17;15.30;;;11.60;;
25509;SDS011;13413;52.336;21.200;2023-04-25T10:06:12;14.50;;;13.20;;
25509;SDS011;13413;52.336;21.200;2023-04-25T10:17:41;36.20;;;27.40;;
25509;SDS011;13413;52.336;21.200;2023-04-25T10:20:37;32.10;;;26.20;;
25509;SDS011;13413;52.336;21.200;2023-04-25T10:23:32;19.70;;;17.60;;
25509;SDS011;13413;52.336;21.200;2023-04-25T10:26:27;19.90;;;17.20;;
25509;SDS011;13413;52.336;21.200;2023-04-25T10:32:33;14.30;;;12.80;;
25509;SDS011;13413;52.336;21.200;2023-04-25T10:35:28;16.90;;;13.60;;
25509;SDS011;13413;52.336;21.200;2023-04-25T10:38:23;42.00;;;28.10;;
25509;SDS011;13413;52.336;21.200;2023-04-25T10:41:18;33.20;;;26.70;;
25509;SDS011;13413;52.336;21.200;2023-04-25T10:44:13;22.40;;;19.80;;
25509;SDS011;13413;52.336;21.200;2023-04-25T10:47:08;19.50;;;17.60;;
25509;SDS011;13413;52.336;21.200;2023-04-25T10:50:04;21.80;;;19.00;;
25509;SDS011;13413;52.336;21.200;2023-04-25T10:53:03;20.00;;;17.90;;
25509;SDS011;13413;52.336;21.200;2023-04-25T10:56:11;16.80;;;15.00;;
25509;SDS011;13413;52.336;21.200;2023-04-25T10:59:09;16.20;;;14.40;;
25509;SDS011;13413;52.336;21.200;2023-04-25T11:02:11;18.00;;;15.70;;
25509;SDS011;13413;52.336;21.200;2023-04-25T11:05:05;19.50;;;17.10;;
25509;SDS011;13413;52.336;21.200;2023-04-25T11:08:00;18.80;;;16.80;;
25509;SDS011;13413;52.336;21.200;2023-04-25T11:11:02;41.50;;;30.90;;
25509;SDS011;13413;52.336;21.200;2023-04-25T11:13:56;44.10;;;31.00;;
25509;SDS011;13413;52.336;21.200;2023-04-25T11:16:53;69.00;;;44.40;;
25509;SDS011;13413;52.336;21.200;2023-04-25T11:19:49;21.50;;;19.40;;
25509;SDS011;13413;52.336;21.200;2023-04-25T11:22:43;29.60;;;24.40;;
25509;SDS011;13413;52.336;21.200;2023-04-25T11:25:39;27.60;;;23.10;;
25509;SDS011;13413;52.336;21.200;2023-04-25T11:28:33;19.00;;;17.00;;
25509;SDS011;13413;52.336;21.200;2023-04-25T11:31:27;18.50;;;16.60;;
25509;SDS011;13413;52.336;21.200;2023-04-25T11:34:21;17.20;;;15.30;;
25509;SDS011;13413;52.336;21.200;2023-04-25T11:37:16;16.10;;;14.50;;
25509;SDS011;13413;52.336;21.200;2023-04-25T11:40:10;15.40;;;13.90;;
25509;SDS011;13413;52.336;21.200;2023-04-25T11:45:57;14.20;;;12.80;;
25509;SDS011;13413;52.336;21.200;2023-04-25T11:48:51;13.00;;;11.80;;
25509;SDS011;13413;52.336;21.200;2023-04-25T11:51:48;11.90;;;10.80;;
25509;SDS011;13413;52.336;21.200;2023-04-25T11:54:42;11.90;;;10.70;;
25509;SDS011;13413;52.336;21.200;2023-04-25T11:57:38;12.00;;;10.80;;
25509;SDS011;13413;52.336;21.200;2023-04-25T12:00:34;13.10;;;10.80;;
25509;SDS011;13413;52.336;21.200;2023-04-25T12:03:29;11.80;;;10.60;;
25509;SDS011;13413;52.336;21.200;2023-04-25T12:06:27;9.90;;;8.70;;
25509;SDS011;13413;52.336;21.200;2023-04-25T12:09:21;46.20;;;10.20;;
25509;SDS011;13413;52.336;21.200;2023-04-25T12:12:23;12.30;;;8.40;;
25509;SDS011;13413;52.336;21.200;2023-04-25T12:15:24;10.10;;;8.50;;
25509;SDS011;13413;52.336;21.200;2023-04-25T12:18:20;11.00;;;8.20;;
25509;SDS011;13413;52.336;21.200;2023-04-25T12:21:15;10.00;;;8.30;;
25509;SDS011;13413;52.336;21.200;2023-04-25T12:24:13;12.40;;;8.40;;
25509;SDS011;13413;52.336;21.200;2023-04-25T12:27:07;9.30;;;7.90;;
25509;SDS011;13413;52.336;21.200;2023-04-25T12:38:28;12.90;;;9.60;;
25509;SDS011;13413;52.336;21.200;2023-04-25T12:44:15;10.70;;;9.40;;
25509;SDS011;13413;52.336;21.200;2023-04-25T12:47:09;13.40;;;7.80;;
25509;SDS011;13413;52.336;21.200;2023-04-25T12:50:04;9.50;;;6.80;;
25509;SDS011;13413;52.336;21.200;2023-04-25T12:58:43;7.90;;;7.00;;
25509;SDS011;13413;52.336;21.200;2023-04-25T13:01:37;15.60;;;14.00;;
25509;SDS011;13413;52.336;21.200;2023-04-25T13:04:31;13.60;;;9.00;;
25509;SDS011;13413;52.336;21.200;2023-04-25T13:07:25;40.20;;;28.40;;
25509;SDS011;13413;52.336;21.200;2023-04-25T13:10:19;13.20;;;9.80;;
25509;SDS011;13413;52.336;21.200;2023-04-25T13:13:13;17.40;;;12.30;;
25509;SDS011;13413;52.336;21.200;2023-04-25T13:16:07;11.90;;;10.00;;
25509;SDS011;13413;52.336;21.200;2023-04-25T13:19:01;12.90;;;6.20;;
25509;SDS011;13413;52.336;21.200;2023-04-25T13:21:58;14.50;;;9.00;;
25509;SDS011;13413;52.336;21.200;2023-04-25T13:24:52;21.70;;;13.80;;
25509;SDS011;13413;52.336;21.200;2023-04-25T13:27:46;29.20;;;7.80;;
25509;SDS011;13413;52.336;21.200;2023-04-25T13:30:40;114.00;;;55.30;;
25509;SDS011;13413;52.336;21.200;2023-04-25T13:33:34;146.90;;;66.00;;
25509;SDS011;13413;52.336;21.200;2023-04-25T13:36:28;147.00;;;72.40;;
25509;SDS011;13413;52.336;21.200;2023-04-25T13:39:22;113.60;;;59.20;;
25509;SDS011;13413;52.336;21.200;2023-04-25T13:42:16;102.40;;;65.30;;
25509;SDS011;13413;52.336;21.200;2023-04-25T13:45:10;60.00;;;38.80;;
25509;SDS011;13413;52.336;21.200;2023-04-25T13:48:04;34.30;;;22.90;;
25509;SDS011;13413;52.336;21.200;2023-04-25T13:50:58;22.00;;;16.00;;
25509;SDS011;13413;52.336;21.200;2023-04-25T13:54:05;12.00;;;9.10;;
25509;SDS011;13413;52.336;21.200;2023-04-25T13:56:59;17.90;;;7.90;;
25509;SDS011;13413;52.336;21.200;2023-04-25T14:00:07;10.00;;;8.50;;
25509;SDS011;13413;52.336;21.200;2023-04-25T14:03:05;18.30;;;12.50;;
25509;SDS011;13413;52.336;21.200;2023-04-25T14:05:59;15.40;;;8.10;;
25509;SDS011;13413;52.336;21.200;2023-04-25T14:08:55;8.50;;;6.90;;
25509;SDS011;13413;52.336;21.200;2023-04-25T14:11:49;17.00;;;9.00;;
25509;SDS011;13413;52.336;21.200;2023-04-25T14:14:43;10.10;;;6.60;;
25509;SDS011;13413;52.336;21.200;2023-04-25T14:17:37;10.30;;;6.00;;
25509;SDS011;13413;52.336;21.200;2023-04-25T14:20:31;9.90;;;6.30;;
25509;SDS011;13413;52.336;21.200;2023-04-25T14:26:18;6.60;;;5.80;;
25509;SDS011;13413;52.336;21.200;2023-04-25T14:29:12;7.70;;;6.50;;
25509;SDS011;13413;52.336;21.200;2023-04-25T14:32:08;10.60;;;7.10;;
25509;SDS011;13413;52.336;21.200;2023-04-25T14:35:02;8.80;;;6.50;;
25509;SDS011;13413;52.336;21.200;2023-04-25T14:37:58;9.70;;;8.00;;
25509;SDS011;13413;52.336;21.200;2023-04-25T14:40:52;8.40;;;5.60;;
25509;SDS011;13413;52.336;21.200;2023-04-25T14:43:46;8.90;;;7.30;;
25509;SDS011;13413;52.336;21.200;2023-04-25T14:46:40;7.20;;;6.10;;
25509;SDS011;13413;52.336;21.200;2023-04-25T14:57:59;10.90;;;7.50;;
25509;SDS011;13413;52.336;21.200;2023-04-25T15:00:53;9.60;;;7.50;;
25509;SDS011;13413;52.336;21.200;2023-04-25T15:03:47;9.80;;;8.30;;
25509;SDS011;13413;52.336;21.200;2023-04-25T15:06:41;8.50;;;7.60;;
25509;SDS011;13413;52.336;21.200;2023-04-25T15:09:35;10.60;;;8.80;;
25509;SDS011;13413;52.336;21.200;2023-04-25T15:12:29;12.30;;;9.50;;
25509;SDS011;13413;52.336;21.200;2023-04-25T15:15:23;13.60;;;10.30;;
25509;SDS011;13413;52.336;21.200;2023-04-25T15:18:17;12.90;;;11.40;;
25509;SDS011;13413;52.336;21.200;2023-04-25T15:21:12;13.00;;;10.40;;
25509;SDS011;13413;52.336;21.200;2023-04-25T15:24:08;15.50;;;11.00;;
25509;SDS011;13413;52.336;21.200;2023-04-25T15:27:02;18.70;;;14.70;;
25509;SDS011;13413;52.336;21.200;2023-04-25T15:29:56;14.80;;;10.20;;
25509;SDS011;13413;52.336;21.200;2023-04-25T15:32:50;15.00;;;12.60;;
25509;SDS011;13413;52.336;21.200;2023-04-25T15:35:44;13.20;;;11.70;;
25509;SDS011;13413;52.336;21.200;2023-04-25T15:38:38;14.40;;;12.60;;
25509;SDS011;13413;52.336;21.200;2023-04-25T15:41:32;16.00;;;13.30;;
25509;SDS011;13413;52.336;21.200;2023-04-25T15:47:22;24.60;;;19.70;;
25509;SDS011;13413;52.336;21.200;2023-04-25T15:50:17;11.40;;;10.20;;
25509;SDS011;13413;52.336;21.200;2023-04-25T15:53:10;12.20;;;10.90;;
25509;SDS011;13413;52.336;21.200;2023-04-25T15:56:04;21.50;;;15.90;;
25509;SDS011;13413;52.336;21.200;2023-04-25T15:58:58;19.80;;;14.00;;
25509;SDS011;13413;52.336;21.200;2023-04-25T16:01:53;17.10;;;12.80;;
25509;SDS011;13413;52.336;21.200;2023-04-25T16:04:47;28.60;;;20.40;;
25509;SDS011;13413;52.336;21.200;2023-04-25T16:07:41;24.00;;;17.40;;
25509;SDS011;13413;52.336;21.200;2023-04-25T16:10:36;26.90;;;18.40;;
25509;SDS011;13413;52.336;21.200;2023-04-25T16:13:30;23.20;;;17.20;;
25509;SDS011;13413;52.336;21.200;2023-04-25T16:16:24;18.20;;;14.10;;
25509;SDS011;13413;52.336;21.200;2023-04-25T16:19:19;19.90;;;16.10;;
25509;SDS011;13413;52.336;21.200;2023-04-25T16:22:13;28.50;;;19.50;;
25509;SDS011;13413;52.336;21.200;2023-04-25T16:25:09;30.50;;;21.60;;
25509;SDS011;13413;52.336;21.200;2023-04-25T16:28:03;36.90;;;23.40;;
25509;SDS011;13413;52.336;21.200;2023-04-25T16:30:58;20.60;;;15.80;;
25509;SDS011;13413;52.336;21.200;2023-04-25T16:36:45;17.70;;;13.50;;
25509;SDS011;13413;52.336;21.200;2023-04-25T16:39:38;17.10;;;13.90;;
25509;SDS011;13413;52.336;21.200;2023-04-25T16:42:32;18.40;;;15.20;;
25509;SDS011;13413;52.336;21.200;2023-04-25T16:45:26;16.20;;;13.50;;
25509;SDS011;13413;52.336;21.200;2023-04-25T16:48:20;17.80;;;14.80;;
25509;SDS011;13413;52.336;21.200;2023-04-25T16:51:15;17.20;;;14.60;;
25509;SDS011;13413;52.336;21.200;2023-04-25T16:54:09;14.60;;;12.80;;
25509;SDS011;13413;52.336;21.200;2023-04-25T16:57:03;17.60;;;13.60;;
25509;SDS011;13413;52.336;21.200;2023-04-25T16:59:57;15.40;;;13.20;;
25509;SDS011;13413;52.336;21.200;2023-04-25T17:02:51;18.40;;;13.70;;
25509;SDS011;13413;52.336;21.200;2023-04-25T17:05:44;17.70;;;13.70;;
25509;SDS011;13413;52.336;21.200;2023-04-25T17:17:20;18.70;;;15.70;;
25509;SDS011;13413;52.336;21.200;2023-04-25T17:20:15;28.50;;;17.90;;
25509;SDS011;13413;52.336;21.200;2023-04-25T17:23:09;31.10;;;19.00;;
25509;SDS011;13413;52.336;21.200;2023-04-25T17:26:03;33.50;;;18.90;;
25509;SDS011;13413;52.336;21.200;2023-04-25T17:28:58;35.30;;;22.90;;
25509;SDS011;13413;52.336;21.200;2023-04-25T17:31:52;22.50;;;17.10;;
25509;SDS011;13413;52.336;21.200;2023-04-25T17:34:46;23.70;;;15.50;;
25509;SDS011;13413;52.336;21.200;2023-04-25T17:37:43;21.60;;;15.00;;
25509;SDS011;13413;52.336;21.200;2023-04-25T17:40:37;18.70;;;13.80;;
25509;SDS011;13413;52.336;21.200;2023-04-25T17:43:33;18.60;;;13.10;;
25509;SDS011;13413;52.336;21.200;2023-04-25T17:46:27;13.90;;;11.10;;
25509;SDS011;13413;52.336;21.200;2023-04-25T17:49:22;27.00;;;20.70;;
25509;SDS011;13413;52.336;21.200;2023-04-25T17:52:15;37.80;;;23.20;;
25509;SDS011;13413;52.336;21.200;2023-04-25T17:55:10;24.00;;;16.60;;
25509;SDS011;13413;52.336;21.200;2023-04-25T17:58:04;20.10;;;15.70;;
25509;SDS011;13413;52.336;21.200;2023-04-25T18:00:59;25.60;;;19.50;;
25509;SDS011;13413;52.336;21.200;2023-04-25T18:03:53;28.00;;;16.50;;
25509;SDS011;13413;52.336;21.200;2023-04-25T18:06:47;22.70;;;15.90;;
25509;SDS011;13413;52.336;21.200;2023-04-25T18:09:41;23.10;;;17.90;;
25509;SDS011;13413;52.336;21.200;2023-04-25T18:12:35;21.70;;;15.90;;
25509;SDS011;13413;52.336;21.200;2023-04-25T18:15:29;23.80;;;18.30;;
25509;SDS011;13413;52.336;21.200;2023-04-25T18:18:23;23.10;;;16.90;;
25509;SDS011;13413;52.336;21.200;2023-04-25T18:21:17;27.50;;;20.00;;
25509;SDS011;13413;52.336;21.200;2023-04-25T18:24:12;26.70;;;20.70;;
25509;SDS011;13413;52.336;21.200;2023-04-25T18:27:07;24.00;;;17.50;;
25509;SDS011;13413;52.336;21.200;2023-04-25T18:30:01;24.80;;;18.90;;
25509;SDS011;13413;52.336;21.200;2023-04-25T18:32:56;23.20;;;17.00;;
25509;SDS011;13413;52.336;21.200;2023-04-25T18:39:00;20.90;;;16.80;;
25509;SDS011;13413;52.336;21.200;2023-04-25T18:41:55;18.20;;;15.30;;
25509;SDS011;13413;52.336;21.200;2023-04-25T18:44:50;27.10;;;16.90;;
25509;SDS011;13413;52.336;21.200;2023-04-25T18:47:43;20.10;;;15.10;;
25509;SDS011;13413;52.336;21.200;2023-04-25T18:50:38;19.50;;;15.20;;
25509;SDS011;13413;52.336;21.200;2023-04-25T18:53:32;21.30;;;16.50;;